Map

Track Data

SID SEASON NUMBER BASIN SUBBASIN NAME ISO_TIME NATURE LAT LON WMO_WIND WMO_PRES WMO_AGENCY TRACK_TYPE DIST2LAND LANDFALL IFLAG USA_AGENCY USA_ATCF_ID USA_LAT USA_LON USA_RECORD USA_STATUS USA_WIND USA_PRES USA_SSHS USA_R34_NE USA_R34_SE USA_R34_SW USA_R34_NW USA_R50_NE USA_R50_SE USA_R50_SW USA_R50_NW USA_R64_NE USA_R64_SE USA_R64_SW USA_R64_NW USA_POCI USA_ROCI USA_RMW USA_EYE TOKYO_LAT TOKYO_LON TOKYO_GRADE TOKYO_WIND TOKYO_PRES TOKYO_R50_DIR TOKYO_R50_LONG TOKYO_R50_SHORT TOKYO_R30_DIR TOKYO_R30_LONG TOKYO_R30_SHORT TOKYO_LAND CMA_LAT CMA_LON CMA_CAT CMA_WIND CMA_PRES HKO_LAT HKO_LON HKO_CAT HKO_WIND HKO_PRES NEWDELHI_LAT NEWDELHI_LON NEWDELHI_GRADE NEWDELHI_WIND NEWDELHI_PRES NEWDELHI_CI NEWDELHI_DP NEWDELHI_POCI REUNION_LAT REUNION_LON REUNION_TYPE REUNION_WIND REUNION_PRES REUNION_TNUM REUNION_CI REUNION_RMW REUNION_R34_NE REUNION_R34_SE REUNION_R34_SW REUNION_R34_NW REUNION_R50_NE REUNION_R50_SE REUNION_R50_SW REUNION_R50_NW REUNION_R64_NE REUNION_R64_SE REUNION_R64_SW REUNION_R64_NW BOM_LAT BOM_LON BOM_TYPE BOM_WIND BOM_PRES BOM_TNUM BOM_CI BOM_RMW BOM_R34_NE BOM_R34_SE BOM_R34_SW BOM_R34_NW BOM_R50_NE BOM_R50_SE BOM_R50_SW BOM_R50_NW BOM_R64_NE BOM_R64_SE BOM_R64_SW BOM_R64_NW BOM_ROCI BOM_POCI BOM_EYE BOM_POS_METHOD BOM_PRES_METHOD NADI_LAT NADI_LON NADI_CAT NADI_WIND NADI_PRES WELLINGTON_LAT WELLINGTON_LON WELLINGTON_WIND WELLINGTON_PRES DS824_LAT DS824_LON DS824_STAGE DS824_WIND DS824_PRES TD9636_LAT TD9636_LON TD9636_STAGE TD9636_WIND TD9636_PRES TD9635_LAT TD9635_LON TD9635_WIND TD9635_PRES TD9635_ROCI NEUMANN_LAT NEUMANN_LON NEUMANN_CLASS NEUMANN_WIND NEUMANN_PRES MLC_LAT MLC_LON MLC_CLASS MLC_WIND MLC_PRES USA_GUST BOM_GUST BOM_GUST_PER REUNION_GUST REUNION_GUST_PER USA_SEAHGT USA_SEARAD_NE USA_SEARAD_SE USA_SEARAD_SW USA_SEARAD_NW STORM_SPEED STORM_DIR
1934248N24286 1934 50 NA NA NOT_NAMED 1934-09-05 06:00:00 TS 23.9000 -74.2000 40 hurdat_atl main 317 317 O_____________ hurdat_atl AL071934 23.9000 -74.2000 TS 40 0 3 0
1934248N24286 1934 50 NA NA NOT_NAMED 1934-09-05 09:00:00 TS 24.0325 -74.1775 main 328 328 P_____________ AL071934 24.0325 -74.1775 TS 42 0 3 0
1934248N24286 1934 50 NA NA NOT_NAMED 1934-09-05 12:00:00 TS 24.2000 -74.2000 45 hurdat_atl main 350 344 O_____________ hurdat_atl AL071934 24.2000 -74.2000 TS 45 0 4 343
1934248N24286 1934 50 NA NA NOT_NAMED 1934-09-05 15:00:00 TS 24.4274 -74.3051 main 344 324 P_____________ AL071934 24.4274 -74.3051 TS 47 0 6 331
1934248N24286 1934 50 NA NA NOT_NAMED 1934-09-05 18:00:00 TS 24.7000 -74.5000 50 hurdat_atl main 324 297 O_____________ hurdat_atl AL071934 24.7000 -74.5000 TS 50 0 7 323
1934248N24286 1934 50 NA NA NOT_NAMED 1934-09-05 21:00:00 TS 25.0076 -74.7848 main 297 276 P_____________ AL071934 25.0076 -74.7848 TS 52 0 8 318
1934248N24286 1934 50 NA NA NOT_NAMED 1934-09-06 00:00:00 TS 25.3000 -75.1000 55 hurdat_atl main 276 261 O_____________ hurdat_atl AL071934 25.3000 -75.1000 TS 55 0 7 314
1934248N24286 1934 50 NA NA NOT_NAMED 1934-09-06 03:00:00 TS 25.5149 -75.3577 main 257 247 P_____________ AL071934 25.5149 -75.3577 TS 57 0 6 312
1934248N24286 1934 50 NA NA NOT_NAMED 1934-09-06 06:00:00 TS 25.7000 -75.6000 60 hurdat_atl main 247 233 O_____________ hurdat_atl AL071934 25.7000 -75.6000 TS 60 0 6 310
1934248N24286 1934 50 NA NA NOT_NAMED 1934-09-06 09:00:00 TS 25.8850 -75.8502 main 228 220 P_____________ AL071934 25.8850 -75.8502 TS 62 0 6 312
1934248N24286 1934 50 NA NA NOT_NAMED 1934-09-06 12:00:00 TS 26.1000 -76.1000 65 hurdat_atl main 220 216 O_____________ hurdat_atl AL071934 26.1000 -76.1000 HU 65 1 7 317
1934248N24286 1934 50 NA NA NOT_NAMED 1934-09-06 15:00:00 TS 26.3775 -76.3575 main 216 216 P_____________ AL071934 26.3775 -76.3575 HU 67 1 8 323
1934248N24286 1934 50 NA NA NOT_NAMED 1934-09-06 18:00:00 TS 26.7000 -76.6000 70 hurdat_atl main 226 226 O_____________ hurdat_atl AL071934 26.7000 -76.6000 HU 70 1 8 327
1934248N24286 1934 50 NA NA NOT_NAMED 1934-09-06 21:00:00 TS 27.0350 -76.8299 main 243 243 P_____________ AL071934 27.0350 -76.8299 HU 72 1 8 333
1934248N24286 1934 50 NA NA NOT_NAMED 1934-09-07 00:00:00 TS 27.4000 -77.0000 75 hurdat_atl main 275 275 O_____________ hurdat_atl AL071934 27.4000 -77.0000 HU 75 1 8 344
1934248N24286 1934 50 NA NA NOT_NAMED 1934-09-07 03:00:00 TS 27.7850 -77.0728 main 307 307 P_____________ AL071934 27.7850 -77.0728 HU 77 1 8 354
1934248N24286 1934 50 NA NA NOT_NAMED 1934-09-07 06:00:00 TS 28.2000 -77.1000 80 hurdat_atl main 324 322 O_____________ hurdat_atl AL071934 28.2000 -77.1000 HU 80 1 9 354
1934248N24286 1934 50 NA NA NOT_NAMED 1934-09-07 09:00:00 TS 28.6350 -77.1574 main 322 322 P_____________ AL071934 28.6350 -77.1574 HU 82 1 9 355
1934248N24286 1934 50 NA NA NOT_NAMED 1934-09-07 12:00:00 TS 29.1000 -77.2000 85 hurdat_atl main 328 328 O_____________ hurdat_atl AL071934 29.1000 -77.2000 HU 85 2 9 356
1934248N24286 1934 50 NA NA NOT_NAMED 1934-09-07 15:00:00 TS 29.5475 -77.2369 main 339 339 P_____________ AL071934 29.5475 -77.2369 HU 87 2 10 1
1934248N24286 1934 50 NA NA NOT_NAMED 1934-09-07 18:00:00 TS 30.1000 -77.2000 90 hurdat_atl main 366 327 O_____________ hurdat_atl AL071934 30.1000 -77.2000 HU 90 2 13 7
1934248N24286 1934 50 NA NA NOT_NAMED 1934-09-07 21:00:00 TS 30.8099 -77.0664 main 327 279 P_____________ AL071934 30.8099 -77.0664 HU 87 2 16 12
1934248N24286 1934 50 NA NA NOT_NAMED 1934-09-08 00:00:00 TS 31.7000 -76.8000 85 hurdat_atl main 269 199 O_____________ hurdat_atl AL071934 31.7000 -76.8000 HU 85 2 20 16
1934248N24286 1934 50 NA NA NOT_NAMED 1934-09-08 03:00:00 TS 32.7476 -76.4024 main 199 110 P_____________ AL071934 32.7476 -76.4024 HU 82 1 23 19
1934248N24286 1934 50 NA NA NOT_NAMED 1934-09-08 06:00:00 TS 33.9000 -75.9000 80 hurdat_atl main 104 72 O_____________ hurdat_atl AL071934 33.9000 -75.9000 HU 80 1 25 21
1934248N24286 1934 50 NA NA NOT_NAMED 1934-09-08 09:00:00 TS 35.0501 -75.3500 main 66 42 P_____________ AL071934 35.0501 -75.3500 HU 77 1 25 21
1934248N24286 1934 50 NA NA NOT_NAMED 1934-09-08 12:00:00 TS 36.2000 -74.8000 75 hurdat_atl main 75 75 O_____________ hurdat_atl AL071934 36.2000 -74.8000 HU 75 1 24 20
1934248N24286 1934 50 NA NA NOT_NAMED 1934-09-08 15:00:00 TS 37.3147 -74.3259 main 119 93 P_____________ AL071934 37.3147 -74.3259 HU 72 1 23 18
1934248N24286 1934 50 NA NA NOT_NAMED 1934-09-08 18:00:00 TS 38.4000 -73.9000 70 hurdat_atl main 102 60 O_____________ hurdat_atl AL071934 38.4000 -73.9000 HU 70 1 24 17
1934248N24286 1934 50 NA NA NOT_NAMED 1934-09-08 21:00:00 TS 39.6311 -73.4368 main 69 22 P_____________ AL071934 39.6311 -73.4368 HU 67 1 22 16
1934248N24286 1934 50 NA NA NOT_NAMED 1934-09-09 00:00:00 TS 40.5000 -73.1000 65 hurdat_atl main 22 8 O_____________ hurdat_atl AL071934 40.5000 -73.1000 HU 65 1 13 17
1934248N24286 1934 50 NA NA NOT_NAMED 1934-09-09 02:00:00 TS 40.7000 -73.0000 65 hurdat_atl main 8 0 O_____________ hurdat_atl AL071934 40.7000 -73.0000 L HU 65 1 8 6
1934248N24286 1934 50 NA NA NOT_NAMED 1934-09-09 03:00:00 TS 40.9199 -73.0368 main 0 0 P_____________ AL071934 40.9199 -73.0368 HU 57 0 15 2
1934248N24286 1934 50 NA NA NOT_NAMED 1934-09-09 04:00:00 TS 41.2000 -73.0000 50 hurdat_atl main 8 0 O_____________ hurdat_atl AL071934 41.2000 -73.0000 L TS 50 0 20 29
1934248N24286 1934 50 NA NA NOT_NAMED 1934-09-09 06:00:00 ET 41.8000 -72.4000 45 hurdat_atl main 0 0 O_____________ hurdat_atl AL071934 41.8000 -72.4000 EX 45 -4 18 31
1934248N24286 1934 50 NA NA NOT_NAMED 1934-09-09 09:00:00 ET 42.4618 -71.9621 main 0 0 P_____________ AL071934 42.4618 -71.9621 EX 42 -4 13 23
1934248N24286 1934 50 NA NA NOT_NAMED 1934-09-09 12:00:00 ET 43.0000 -71.7000 40 hurdat_atl main 0 0 O_____________ hurdat_atl AL071934 43.0000 -71.7000 EX 40 -4 13 28
1934248N24286 1934 50 NA NA NOT_NAMED 1934-09-09 15:00:00 ET 43.6491 -71.1111 main 0 0 P_____________ AL071934 43.6491 -71.1111 EX 37 -4 16 38
1934248N24286 1934 50 NA NA NOT_NAMED 1934-09-09 18:00:00 ET 44.3000 -70.3000 35 hurdat_atl main 0 0 O_____________ hurdat_atl AL071934 44.3000 -70.3000 EX 35 -4 18 46
1934248N24286 1934 50 NA NA NOT_NAMED 1934-09-09 21:00:00 ET 44.9063 -69.3099 main 0 0 P_____________ AL071934 44.9063 -69.3099 EX 32 -4 20 52
1934248N24286 1934 50 NA NA NOT_NAMED 1934-09-10 00:00:00 ET 45.5000 -68.1000 30 hurdat_atl main 0 0 O_____________ hurdat_atl AL071934 45.5000 -68.1000 EX 30 -4 22 57
1934248N24286 1934 50 NA NA NOT_NAMED 1934-09-10 03:00:00 ET 46.0917 -66.7219 main 0 0 P_____________ AL071934 46.0917 -66.7219 EX 27 -4 23 59
1934248N24286 1934 50 NA NA NOT_NAMED 1934-09-10 06:00:00 ET 46.7000 -65.2000 25 hurdat_atl main 0 0 O_____________ hurdat_atl AL071934 46.7000 -65.2000 EX 25 -4 25 60
1934248N24286 1934 50 NA NA NOT_NAMED 1934-09-10 09:00:00 ET 47.3441 -63.6210 main 44 44 P_____________ AL071934 47.3441 -63.6210 EX 25 -4 25 59
1934248N24286 1934 50 NA NA NOT_NAMED 1934-09-10 12:00:00 ET 48.0000 -62.0000 25 hurdat_atl main 122 O_____________ hurdat_atl AL071934 48.0000 -62.0000 EX 25 -4 25 59

About IBTrACS Database

This database is a web-friendly format of International Best Track Archive for Climate Stewardship (IBTrACS), a global best track data archive curated by NOAA dating back to 1842.

Updated: 2021-12-01